sensor_id;sensor_type;location;lat;lon;timestamp;temperature;humidity
22680;DHT22;11507;44.858;10.374;2022-11-28T00:01:13;2.60;99.90
22680;DHT22;11507;44.858;10.374;2022-11-28T00:03:40;2.60;99.90
22680;DHT22;11507;44.858;10.374;2022-11-28T00:06:06;2.60;99.90
22680;DHT22;11507;44.858;10.374;2022-11-28T00:08:33;2.60;99.90
22680;DHT22;11507;44.858;10.374;2022-11-28T00:11:02;2.60;99.90
22680;DHT22;11507;44.858;10.374;2022-11-28T00:13:28;2.70;99.90
22680;DHT22;11507;44.858;10.374;2022-11-28T00:15:56;2.70;99.90
22680;DHT22;11507;44.858;10.374;2022-11-28T00:18:22;2.70;99.90
22680;DHT22;11507;44.858;10.374;2022-11-28T00:20:48;2.70;99.90
22680;DHT22;11507;44.858;10.374;2022-11-28T00:23:14;2.70;99.90
22680;DHT22;11507;44.858;10.374;2022-11-28T00:25:40;2.70;99.90
22680;DHT22;11507;44.858;10.374;2022-11-28T00:28:06;2.70;99.90
22680;DHT22;11507;44.858;10.374;2022-11-28T00:30:36;2.70;99.90
22680;DHT22;11507;44.858;10.374;2022-11-28T00:33:02;2.70;99.90
22680;DHT22;11507;44.858;10.374;2022-11-28T00:35:28;2.70;99.90
22680;DHT22;11507;44.858;10.374;2022-11-28T00:37:53;2.70;99.90
22680;DHT22;11507;44.858;10.374;2022-11-28T00:40:19;2.70;99.90
22680;DHT22;11507;44.858;10.374;2022-11-28T00:42:45;2.80;99.90
22680;DHT22;11507;44.858;10.374;2022-11-28T00:45:11;2.80;99.90
22680;DHT22;11507;44.858;10.374;2022-11-28T00:47:38;2.80;99.90
22680;DHT22;11507;44.858;10.374;2022-11-28T00:50:04;2.80;99.90
22680;DHT22;11507;44.858;10.374;2022-11-28T00:52:31;2.80;99.90
22680;DHT22;11507;44.858;10.374;2022-11-28T00:54:57;2.80;99.90
22680;DHT22;11507;44.858;10.374;2022-11-28T00:57:23;2.80;99.90
22680;DHT22;11507;44.858;10.374;2022-11-28T00:59:49;2.80;99.90
22680;DHT22;11507;44.858;10.374;2022-11-28T01:02:15;2.80;99.90
22680;DHT22;11507;44.858;10.374;2022-11-28T01:04:41;2.80;99.90
22680;DHT22;11507;44.858;10.374;2022-11-28T01:07:07;2.80;99.90
22680;DHT22;11507;44.858;10.374;2022-11-28T01:09:33;2.70;99.90
22680;DHT22;11507;44.858;10.374;2022-11-28T01:11:58;2.70;99.90
22680;DHT22;11507;44.858;10.374;2022-11-28T01:14:24;2.70;99.90
22680;DHT22;11507;44.858;10.374;2022-11-28T01:16:51;2.70;99.90
22680;DHT22;11507;44.858;10.374;2022-11-28T01:19:17;2.60;99.90
22680;DHT22;11507;44.858;10.374;2022-11-28T01:21:44;2.70;99.90
22680;DHT22;11507;44.858;10.374;2022-11-28T01:24:09;2.70;99.90
22680;DHT22;11507;44.858;10.374;2022-11-28T01:26:37;2.60;99.90
22680;DHT22;11507;44.858;10.374;2022-11-28T01:29:04;2.60;99.90
22680;DHT22;11507;44.858;10.374;2022-11-28T01:31:30;2.60;99.90
22680;DHT22;11507;44.858;10.374;2022-11-28T01:33:56;2.60;99.90
22680;DHT22;11507;44.858;10.374;2022-11-28T01:36:23;2.60;99.90
22680;DHT22;11507;44.858;10.374;2022-11-28T01:38:50;2.60;99.90
22680;DHT22;11507;44.858;10.374;2022-11-28T01:41:19;2.60;99.90
22680;DHT22;11507;44.858;10.374;2022-11-28T01:45:03;2.60;99.90
22680;DHT22;11507;44.858;10.374;2022-11-28T01:46:54;2.60;99.90
22680;DHT22;11507;44.858;10.374;2022-11-28T01:51:50;2.70;99.90
22680;DHT22;11507;44.858;10.374;2022-11-28T01:54:19;2.70;99.90
22680;DHT22;11507;44.858;10.374;2022-11-28T01:56:56;2.70;99.90
22680;DHT22;11507;44.858;10.374;2022-11-28T01:59:26;2.60;99.90
22680;DHT22;11507;44.858;10.374;2022-11-28T02:01:53;2.70;99.90
22680;DHT22;11507;44.858;10.374;2022-11-28T02:04:21;2.60;99.90
22680;DHT22;11507;44.858;10.374;2022-11-28T02:06:50;2.60;99.90
22680;DHT22;11507;44.858;10.374;2022-11-28T02:09:16;2.60;99.90
22680;DHT22;11507;44.858;10.374;2022-11-28T02:23:07;2.50;99.90
22680;DHT22;11507;44.858;10.374;2022-11-28T02:34:09;2.60;99.90
22680;DHT22;11507;44.858;10.374;2022-11-28T02:36:49;2.60;99.90
22680;DHT22;11507;44.858;10.374;2022-11-28T02:39:37;2.60;99.90
22680;DHT22;11507;44.858;10.374;2022-11-28T02:42:21;2.70;99.90
22680;DHT22;11507;44.858;10.374;2022-11-28T02:47:35;2.70;99.90
22680;DHT22;11507;44.858;10.374;2022-11-28T02:50:12;2.70;99.90
22680;DHT22;11507;44.858;10.374;2022-11-28T02:52:45;2.80;99.90
22680;DHT22;11507;44.858;10.374;2022-11-28T02:55:13;2.80;99.90
22680;DHT22;11507;44.858;10.374;2022-11-28T02:57:41;2.70;99.90
22680;DHT22;11507;44.858;10.374;2022-11-28T03:00:31;2.80;99.90
22680;DHT22;11507;44.858;10.374;2022-11-28T03:11:27;2.70;99.90
22680;DHT22;11507;44.858;10.374;2022-11-28T03:19:36;2.70;99.90
22680;DHT22;11507;44.858;10.374;2022-11-28T03:22:11;2.80;99.90
22680;DHT22;11507;44.858;10.374;2022-11-28T03:24:46;2.70;99.90
22680;DHT22;11507;44.858;10.374;2022-11-28T03:27:21;2.70;99.90
22680;DHT22;11507;44.858;10.374;2022-11-28T03:29:52;2.70;99.90
22680;DHT22;11507;44.858;10.374;2022-11-28T03:32:29;2.70;99.90
22680;DHT22;11507;44.858;10.374;2022-11-28T03:35:06;2.80;99.90
22680;DHT22;11507;44.858;10.374;2022-11-28T03:37:38;2.70;99.90
22680;DHT22;11507;44.858;10.374;2022-11-28T03:40:07;2.80;99.90
22680;DHT22;11507;44.858;10.374;2022-11-28T03:42:39;2.80;99.90
22680;DHT22;11507;44.858;10.374;2022-11-28T03:45:10;2.80;99.90
22680;DHT22;11507;44.858;10.374;2022-11-28T03:47:44;2.70;99.90
22680;DHT22;11507;44.858;10.374;2022-11-28T03:50:18;2.70;99.90
22680;DHT22;11507;44.858;10.374;2022-11-28T03:52:52;2.70;99.90
22680;DHT22;11507;44.858;10.374;2022-11-28T03:56:12;2.70;99.90
22680;DHT22;11507;44.858;10.374;2022-11-28T03:58:40;2.60;99.90
22680;DHT22;11507;44.858;10.374;2022-11-28T04:01:27;2.60;99.90
22680;DHT22;11507;44.858;10.374;2022-11-28T04:04:15;2.60;99.90
22680;DHT22;11507;44.858;10.374;2022-11-28T04:07:17;2.60;99.90
22680;DHT22;11507;44.858;10.374;2022-11-28T04:09:57;2.60;99.90
22680;DHT22;11507;44.858;10.374;2022-11-28T04:23:39;2.50;99.90
22680;DHT22;11507;44.858;10.374;2022-11-28T04:26:15;2.50;99.90
22680;DHT22;11507;44.858;10.374;2022-11-28T04:28:45;2.50;99.90
22680;DHT22;11507;44.858;10.374;2022-11-28T04:31:12;2.50;99.90
22680;DHT22;11507;44.858;10.374;2022-11-28T04:33:42;2.50;99.90
22680;DHT22;11507;44.858;10.374;2022-11-28T04:36:10;2.50;99.90
22680;DHT22;11507;44.858;10.374;2022-11-28T04:38:38;2.50;99.90
22680;DHT22;11507;44.858;10.374;2022-11-28T04:41:13;2.60;99.90
22680;DHT22;11507;44.858;10.374;2022-11-28T04:43:45;2.60;99.90
22680;DHT22;11507;44.858;10.374;2022-11-28T04:46:20;2.60;99.90
22680;DHT22;11507;44.858;10.374;2022-11-28T04:48:49;2.60;99.90
22680;DHT22;11507;44.858;10.374;2022-11-28T04:56:48;2.70;99.90
22680;DHT22;11507;44.858;10.374;2022-11-28T04:59:16;2.60;99.90
22680;DHT22;11507;44.858;10.374;2022-11-28T05:01:44;2.60;99.90
22680;DHT22;11507;44.858;10.374;2022-11-28T05:04:12;2.70;99.90
22680;DHT22;11507;44.858;10.374;2022-11-28T05:06:40;2.70;99.90
22680;DHT22;11507;44.858;10.374;2022-11-28T05:09:05;2.70;99.90
22680;DHT22;11507;44.858;10.374;2022-11-28T05:11:31;2.70;99.90
22680;DHT22;11507;44.858;10.374;2022-11-28T05:13:57;2.70;99.90
22680;DHT22;11507;44.858;10.374;2022-11-28T05:16:23;2.70;99.90
22680;DHT22;11507;44.858;10.374;2022-11-28T05:18:49;2.80;99.90
22680;DHT22;11507;44.858;10.374;2022-11-28T05:21:15;2.90;99.90
22680;DHT22;11507;44.858;10.374;2022-11-28T05:23:42;3.00;99.90
22680;DHT22;11507;44.858;10.374;2022-11-28T05:26:09;3.00;99.90
22680;DHT22;11507;44.858;10.374;2022-11-28T05:28:35;3.00;99.90
22680;DHT22;11507;44.858;10.374;2022-11-28T05:31:01;3.00;99.90
22680;DHT22;11507;44.858;10.374;2022-11-28T05:33:28;3.00;99.90
22680;DHT22;11507;44.858;10.374;2022-11-28T05:36:00;3.00;99.90
22680;DHT22;11507;44.858;10.374;2022-11-28T05:38:27;3.00;99.90
22680;DHT22;11507;44.858;10.374;2022-11-28T05:40:53;3.00;99.90
22680;DHT22;11507;44.858;10.374;2022-11-28T05:43:18;3.00;99.90
22680;DHT22;11507;44.858;10.374;2022-11-28T05:45:44;2.90;99.90
22680;DHT22;11507;44.858;10.374;2022-11-28T05:48:10;3.00;99.90
22680;DHT22;11507;44.858;10.374;2022-11-28T05:50:40;3.00;99.90
22680;DHT22;11507;44.858;10.374;2022-11-28T05:53:08;3.00;99.90
22680;DHT22;11507;44.858;10.374;2022-11-28T05:55:34;3.00;99.90
22680;DHT22;11507;44.858;10.374;2022-11-28T05:58:01;3.00;99.90
22680;DHT22;11507;44.858;10.374;2022-11-28T06:00:30;3.00;99.90
22680;DHT22;11507;44.858;10.374;2022-11-28T06:02:57;3.10;99.90
22680;DHT22;11507;44.858;10.374;2022-11-28T06:05:23;3.10;99.90
22680;DHT22;11507;44.858;10.374;2022-11-28T06:07:50;3.00;99.90
22680;DHT22;11507;44.858;10.374;2022-11-28T06:10:17;3.10;99.90
22680;DHT22;11507;44.858;10.374;2022-11-28T06:12:45;3.10;99.90
22680;DHT22;11507;44.858;10.374;2022-11-28T06:15:10;3.10;99.90
22680;DHT22;11507;44.858;10.374;2022-11-28T06:17:36;3.20;99.90
22680;DHT22;11507;44.858;10.374;2022-11-28T06:20:02;3.20;99.90
22680;DHT22;11507;44.858;10.374;2022-11-28T06:22:29;3.20;99.90
22680;DHT22;11507;44.858;10.374;2022-11-28T06:24:55;3.20;99.90
22680;DHT22;11507;44.858;10.374;2022-11-28T06:27:21;3.20;99.90
22680;DHT22;11507;44.858;10.374;2022-11-28T06:29:46;3.20;99.90
22680;DHT22;11507;44.858;10.374;2022-11-28T06:32:12;3.20;99.90
22680;DHT22;11507;44.858;10.374;2022-11-28T06:34:38;3.20;99.90
22680;DHT22;11507;44.858;10.374;2022-11-28T06:37:04;3.30;99.90
22680;DHT22;11507;44.858;10.374;2022-11-28T06:39:30;3.30;99.90
22680;DHT22;11507;44.858;10.374;2022-11-28T06:41:57;3.30;99.90
22680;DHT22;11507;44.858;10.374;2022-11-28T06:44:22;3.30;99.90
22680;DHT22;11507;44.858;10.374;2022-11-28T06:46:49;3.30;99.90
22680;DHT22;11507;44.858;10.374;2022-11-28T06:49:15;3.30;99.90
22680;DHT22;11507;44.858;10.374;2022-11-28T06:51:41;3.40;99.90
22680;DHT22;11507;44.858;10.374;2022-11-28T06:54:08;3.40;99.90
22680;DHT22;11507;44.858;10.374;2022-11-28T06:56:34;3.30;99.90
22680;DHT22;11507;44.858;10.374;2022-11-28T06:59:00;3.40;99.90
22680;DHT22;11507;44.858;10.374;2022-11-28T07:01:28;3.40;99.90
22680;DHT22;11507;44.858;10.374;2022-11-28T07:03:54;3.40;99.90
22680;DHT22;11507;44.858;10.374;2022-11-28T07:06:23;3.50;99.90
22680;DHT22;11507;44.858;10.374;2022-11-28T07:08:50;3.50;99.90
22680;DHT22;11507;44.858;10.374;2022-11-28T07:11:22;3.50;99.90
22680;DHT22;11507;44.858;10.374;2022-11-28T07:13:49;3.50;99.90
22680;DHT22;11507;44.858;10.374;2022-11-28T07:16:20;3.50;99.90
22680;DHT22;11507;44.858;10.374;2022-11-28T07:18:47;3.60;99.90
22680;DHT22;11507;44.858;10.374;2022-11-28T07:21:14;3.60;99.90
22680;DHT22;11507;44.858;10.374;2022-11-28T07:23:41;3.60;99.90
22680;DHT22;11507;44.858;10.374;2022-11-28T07:26:10;3.70;99.90
22680;DHT22;11507;44.858;10.374;2022-11-28T07:28:36;3.70;99.90
22680;DHT22;11507;44.858;10.374;2022-11-28T07:31:03;3.70;99.90
22680;DHT22;11507;44.858;10.374;2022-11-28T07:33:31;3.80;99.90
22680;DHT22;11507;44.858;10.374;2022-11-28T07:36:03;3.80;99.90
22680;DHT22;11507;44.858;10.374;2022-11-28T07:38:30;3.90;99.90
22680;DHT22;11507;44.858;10.374;2022-11-28T07:41:01;3.90;99.90
22680;DHT22;11507;44.858;10.374;2022-11-28T07:43:27;4.00;99.90
22680;DHT22;11507;44.858;10.374;2022-11-28T07:45:52;4.00;99.90
22680;DHT22;11507;44.858;10.374;2022-11-28T07:48:18;4.00;99.90
22680;DHT22;11507;44.858;10.374;2022-11-28T07:50:44;4.10;99.90
22680;DHT22;11507;44.858;10.374;2022-11-28T07:53:10;4.20;99.90
22680;DHT22;11507;44.858;10.374;2022-11-28T07:55:36;4.20;99.90
22680;DHT22;11507;44.858;10.374;2022-11-28T07:58:03;4.30;99.90
22680;DHT22;11507;44.858;10.374;2022-11-28T08:00:32;4.40;99.90
22680;DHT22;11507;44.858;10.374;2022-11-28T08:02:58;4.50;99.90
22680;DHT22;11507;44.858;10.374;2022-11-28T08:05:24;4.50;99.90
22680;DHT22;11507;44.858;10.374;2022-11-28T08:07:50;4.60;99.90
22680;DHT22;11507;44.858;10.374;2022-11-28T08:10:16;4.60;99.90
22680;DHT22;11507;44.858;10.374;2022-11-28T08:12:43;4.70;99.90
22680;DHT22;11507;44.858;10.374;2022-11-28T08:15:09;4.80;99.90
22680;DHT22;11507;44.858;10.374;2022-11-28T08:17:35;4.80;99.90
22680;DHT22;11507;44.858;10.374;2022-11-28T08:20:01;4.90;99.90
22680;DHT22;11507;44.858;10.374;2022-11-28T08:22:27;5.00;99.90
22680;DHT22;11507;44.858;10.374;2022-11-28T08:24:53;5.10;99.90
22680;DHT22;11507;44.858;10.374;2022-11-28T08:27:18;5.20;99.90
22680;DHT22;11507;44.858;10.374;2022-11-28T08:29:44;5.30;99.90
22680;DHT22;11507;44.858;10.374;2022-11-28T08:32:10;5.40;99.90
22680;DHT22;11507;44.858;10.374;2022-11-28T08:34:36;5.50;99.90
22680;DHT22;11507;44.858;10.374;2022-11-28T08:37:02;5.60;99.90
22680;DHT22;11507;44.858;10.374;2022-11-28T08:39:28;5.70;99.90
22680;DHT22;11507;44.858;10.374;2022-11-28T08:41:54;5.70;99.90
22680;DHT22;11507;44.858;10.374;2022-11-28T08:44:26;5.70;99.90
22680;DHT22;11507;44.858;10.374;2022-11-28T08:46:53;5.70;99.90
22680;DHT22;11507;44.858;10.374;2022-11-28T08:49:19;5.70;99.90
22680;DHT22;11507;44.858;10.374;2022-11-28T08:51:45;5.80;99.90
22680;DHT22;11507;44.858;10.374;2022-11-28T08:54:11;5.90;99.90
22680;DHT22;11507;44.858;10.374;2022-11-28T08:56:36;5.90;99.90
22680;DHT22;11507;44.858;10.374;2022-11-28T08:59:02;6.00;99.90
22680;DHT22;11507;44.858;10.374;2022-11-28T09:01:28;6.00;99.90
22680;DHT22;11507;44.858;10.374;2022-11-28T09:03:55;6.00;99.90
22680;DHT22;11507;44.858;10.374;2022-11-28T09:06:22;6.00;99.90
22680;DHT22;11507;44.858;10.374;2022-11-28T09:08:49;5.90;99.90
22680;DHT22;11507;44.858;10.374;2022-11-28T09:11:19;5.90;99.90
22680;DHT22;11507;44.858;10.374;2022-11-28T09:13:45;5.90;99.90
22680;DHT22;11507;44.858;10.374;2022-11-28T09:16:11;6.00;99.90
22680;DHT22;11507;44.858;10.374;2022-11-28T09:18:37;6.00;99.90
22680;DHT22;11507;44.858;10.374;2022-11-28T09:21:04;6.00;99.90
22680;DHT22;11507;44.858;10.374;2022-11-28T09:23:34;6.00;99.90
22680;DHT22;11507;44.858;10.374;2022-11-28T09:26:00;6.00;99.90
22680;DHT22;11507;44.858;10.374;2022-11-28T09:28:33;6.10;99.90
22680;DHT22;11507;44.858;10.374;2022-11-28T09:31:00;6.20;99.90
22680;DHT22;11507;44.858;10.374;2022-11-28T09:33:27;6.30;99.90
22680;DHT22;11507;44.858;10.374;2022-11-28T09:35:54;6.40;99.90
22680;DHT22;11507;44.858;10.374;2022-11-28T09:38:21;6.40;99.90
22680;DHT22;11507;44.858;10.374;2022-11-28T09:40:48;6.50;99.90
22680;DHT22;11507;44.858;10.374;2022-11-28T09:43:21;6.50;99.90
22680;DHT22;11507;44.858;10.374;2022-11-28T09:45:51;6.60;99.90
22680;DHT22;11507;44.858;10.374;2022-11-28T09:48:38;6.70;99.90
22680;DHT22;11507;44.858;10.374;2022-11-28T09:51:34;6.70;99.90
22680;DHT22;11507;44.858;10.374;2022-11-28T09:56:48;6.90;99.90
22680;DHT22;11507;44.858;10.374;2022-11-28T09:59:25;7.00;99.90
22680;DHT22;11507;44.858;10.374;2022-11-28T10:01:55;7.10;99.90
22680;DHT22;11507;44.858;10.374;2022-11-28T10:05:02;7.20;99.90
22680;DHT22;11507;44.858;10.374;2022-11-28T10:10:47;7.40;99.90
22680;DHT22;11507;44.858;10.374;2022-11-28T10:19:31;7.80;99.90
22680;DHT22;11507;44.858;10.374;2022-11-28T10:21:59;8.00;99.90
22680;DHT22;11507;44.858;10.374;2022-11-28T10:24:50;8.10;99.90
22680;DHT22;11507;44.858;10.374;2022-11-28T10:27:31;8.10;99.90
22680;DHT22;11507;44.858;10.374;2022-11-28T10:30:06;8.10;99.90
22680;DHT22;11507;44.858;10.374;2022-11-28T10:32:43;8.10;99.90
22680;DHT22;11507;44.858;10.374;2022-11-28T10:35:22;8.10;99.90
22680;DHT22;11507;44.858;10.374;2022-11-28T10:37:51;8.10;99.90
22680;DHT22;11507;44.858;10.374;2022-11-28T10:49:31;7.60;99.90
22680;DHT22;11507;44.858;10.374;2022-11-28T10:57:35;7.60;99.90
22680;DHT22;11507;44.858;10.374;2022-11-28T11:00:18;7.60;99.90
22680;DHT22;11507;44.858;10.374;2022-11-28T11:02:55;7.60;99.90
22680;DHT22;11507;44.858;10.374;2022-11-28T11:05:34;7.60;99.90
22680;DHT22;11507;44.858;10.374;2022-11-28T11:08:21;7.60;99.90
22680;DHT22;11507;44.858;10.374;2022-11-28T11:10:51;7.70;99.90
22680;DHT22;11507;44.858;10.374;2022-11-28T11:13:26;7.60;99.90
22680;DHT22;11507;44.858;10.374;2022-11-28T11:16:09;7.60;99.90
22680;DHT22;11507;44.858;10.374;2022-11-28T11:21:16;7.50;99.90
22680;DHT22;11507;44.858;10.374;2022-11-28T11:23:44;7.50;99.90
22680;DHT22;11507;44.858;10.374;2022-11-28T11:26:24;7.60;99.90
22680;DHT22;11507;44.858;10.374;2022-11-28T11:28:51;7.60;99.90
22680;DHT22;11507;44.858;10.374;2022-11-28T11:31:25;7.60;99.90
22680;DHT22;11507;44.858;10.374;2022-11-28T11:34:00;7.60;99.90
22680;DHT22;11507;44.858;10.374;2022-11-28T11:36:32;7.70;99.90
22680;DHT22;11507;44.858;10.374;2022-11-28T11:39:23;7.70;99.90
22680;DHT22;11507;44.858;10.374;2022-11-28T11:42:09;7.80;99.90
22680;DHT22;11507;44.858;10.374;2022-11-28T11:44:36;7.80;99.90
22680;DHT22;11507;44.858;10.374;2022-11-28T11:47:05;7.80;99.90
22680;DHT22;11507;44.858;10.374;2022-11-28T11:51:58;7.90;99.90
22680;DHT22;11507;44.858;10.374;2022-11-28T11:54:26;7.90;99.90
22680;DHT22;11507;44.858;10.374;2022-11-28T11:56:54;8.00;99.90
22680;DHT22;11507;44.858;10.374;2022-11-28T11:59:43;8.00;99.90
22680;DHT22;11507;44.858;10.374;2022-11-28T12:02:43;8.10;99.90
22680;DHT22;11507;44.858;10.374;2022-11-28T12:05:14;8.00;99.90
22680;DHT22;11507;44.858;10.374;2022-11-28T12:07:58;8.10;99.90
22680;DHT22;11507;44.858;10.374;2022-11-28T12:10:39;8.00;99.90
22680;DHT22;11507;44.858;10.374;2022-11-28T12:13:22;8.00;99.90
22680;DHT22;11507;44.858;10.374;2022-11-28T12:15:54;8.00;99.90
22680;DHT22;11507;44.858;10.374;2022-11-28T12:18:57;8.00;99.90
22680;DHT22;11507;44.858;10.374;2022-11-28T12:24:09;8.20;99.90
22680;DHT22;11507;44.858;10.374;2022-11-28T12:44:06;8.00;99.90
22680;DHT22;11507;44.858;10.374;2022-11-28T12:52:30;7.70;99.90
22680;DHT22;11507;44.858;10.374;2022-11-28T12:55:19;7.70;99.90
22680;DHT22;11507;44.858;10.374;2022-11-28T13:00:28;7.80;99.90
22680;DHT22;11507;44.858;10.374;2022-11-28T13:03:26;7.90;99.90
22680;DHT22;11507;44.858;10.374;2022-11-28T13:14:08;8.00;99.90
22680;DHT22;11507;44.858;10.374;2022-11-28T13:16:49;8.00;99.90
22680;DHT22;11507;44.858;10.374;2022-11-28T13:22:11;7.90;99.90
22680;DHT22;11507;44.858;10.374;2022-11-28T13:30:23;8.00;99.90
22680;DHT22;11507;44.858;10.374;2022-11-28T13:35:28;8.00;99.90
22680;DHT22;11507;44.858;10.374;2022-11-28T13:38:16;8.00;99.90
22680;DHT22;11507;44.858;10.374;2022-11-28T13:44:10;8.10;99.90
22680;DHT22;11507;44.858;10.374;2022-11-28T13:46:44;8.00;99.90
22680;DHT22;11507;44.858;10.374;2022-11-28T13:49:26;8.00;99.90
22680;DHT22;11507;44.858;10.374;2022-11-28T13:54:54;7.90;99.90
22680;DHT22;11507;44.858;10.374;2022-11-28T13:57:29;7.90;99.90
22680;DHT22;11507;44.858;10.374;2022-11-28T14:00:03;7.80;99.90
22680;DHT22;11507;44.858;10.374;2022-11-28T14:02:43;7.80;99.90
22680;DHT22;11507;44.858;10.374;2022-11-28T14:07:48;7.60;99.90
22680;DHT22;11507;44.858;10.374;2022-11-28T14:10:38;7.50;99.90
22680;DHT22;11507;44.858;10.374;2022-11-28T14:13:38;7.50;99.90
22680;DHT22;11507;44.858;10.374;2022-11-28T14:19:02;7.50;99.90
22680;DHT22;11507;44.858;10.374;2022-11-28T14:27:14;7.30;99.90
22680;DHT22;11507;44.858;10.374;2022-11-28T14:29:47;7.30;99.90
22680;DHT22;11507;44.858;10.374;2022-11-28T14:32:23;7.30;99.90
22680;DHT22;11507;44.858;10.374;2022-11-28T14:34:53;7.30;99.90
22680;DHT22;11507;44.858;10.374;2022-11-28T14:39:49;7.30;99.90
22680;DHT22;11507;44.858;10.374;2022-11-28T14:44:48;7.20;99.90
22680;DHT22;11507;44.858;10.374;2022-11-28T14:47:31;7.20;99.90
22680;DHT22;11507;44.858;10.374;2022-11-28T14:50:44;7.10;99.90
22680;DHT22;11507;44.858;10.374;2022-11-28T14:53:35;7.10;99.90
22680;DHT22;11507;44.858;10.374;2022-11-28T14:58:51;7.00;99.90
22680;DHT22;11507;44.858;10.374;2022-11-28T15:04:46;6.90;99.90
22680;DHT22;11507;44.858;10.374;2022-11-28T15:07:23;6.90;99.90
22680;DHT22;11507;44.858;10.374;2022-11-28T15:15:13;6.80;99.90
22680;DHT22;11507;44.858;10.374;2022-11-28T15:17:43;6.70;99.90
22680;DHT22;11507;44.858;10.374;2022-11-28T15:20:21;6.70;99.90
22680;DHT22;11507;44.858;10.374;2022-11-28T15:22:51;6.70;99.90
22680;DHT22;11507;44.858;10.374;2022-11-28T15:25:18;6.70;99.90
22680;DHT22;11507;44.858;10.374;2022-11-28T15:27:45;6.60;99.90
22680;DHT22;11507;44.858;10.374;2022-11-28T15:30:17;6.60;99.90
22680;DHT22;11507;44.858;10.374;2022-11-28T15:32:45;6.60;99.90
22680;DHT22;11507;44.858;10.374;2022-11-28T15:35:13;6.60;99.90
22680;DHT22;11507;44.858;10.374;2022-11-28T15:37:47;6.50;99.90
22680;DHT22;11507;44.858;10.374;2022-11-28T15:40:20;6.50;99.90
22680;DHT22;11507;44.858;10.374;2022-11-28T15:42:47;6.50;99.90
22680;DHT22;11507;44.858;10.374;2022-11-28T15:45:25;6.50;99.90
22680;DHT22;11507;44.858;10.374;2022-11-28T15:47:53;6.40;99.90
22680;DHT22;11507;44.858;10.374;2022-11-28T15:50:30;6.40;99.90
22680;DHT22;11507;44.858;10.374;2022-11-28T15:53:14;6.40;99.90
22680;DHT22;11507;44.858;10.374;2022-11-28T15:55:43;6.30;99.90
22680;DHT22;11507;44.858;10.374;2022-11-28T16:00:59;6.20;99.90
22680;DHT22;11507;44.858;10.374;2022-11-28T16:03:30;6.10;99.90
22680;DHT22;11507;44.858;10.374;2022-11-28T16:05:59;6.10;99.90
22680;DHT22;11507;44.858;10.374;2022-11-28T16:08:34;6.00;99.90
22680;DHT22;11507;44.858;10.374;2022-11-28T16:11:03;6.00;99.90
22680;DHT22;11507;44.858;10.374;2022-11-28T16:13:30;5.90;99.90
22680;DHT22;11507;44.858;10.374;2022-11-28T16:15:58;5.90;99.90
22680;DHT22;11507;44.858;10.374;2022-11-28T16:18:27;5.80;99.90
22680;DHT22;11507;44.858;10.374;2022-11-28T16:20:57;5.80;99.90
22680;DHT22;11507;44.858;10.374;2022-11-28T16:23:34;5.70;99.90
22680;DHT22;11507;44.858;10.374;2022-11-28T16:26:06;5.70;99.90
22680;DHT22;11507;44.858;10.374;2022-11-28T16:28:37;5.70;99.90
22680;DHT22;11507;44.858;10.374;2022-11-28T16:31:16;5.70;99.90
22680;DHT22;11507;44.858;10.374;2022-11-28T16:33:45;5.60;99.90
22680;DHT22;11507;44.858;10.374;2022-11-28T16:36:32;5.60;99.90
22680;DHT22;11507;44.858;10.374;2022-11-28T16:39:13;5.50;99.90
22680;DHT22;11507;44.858;10.374;2022-11-28T16:41:51;5.40;99.90
22680;DHT22;11507;44.858;10.374;2022-11-28T16:44:22;5.40;99.90
22680;DHT22;11507;44.858;10.374;2022-11-28T16:46:54;5.40;99.90
22680;DHT22;11507;44.858;10.374;2022-11-28T16:54:53;5.30;99.90
22680;DHT22;11507;44.858;10.374;2022-11-28T16:57:20;5.30;99.90
22680;DHT22;11507;44.858;10.374;2022-11-28T16:59:47;5.20;99.90
22680;DHT22;11507;44.858;10.374;2022-11-28T17:02:19;5.20;99.90
22680;DHT22;11507;44.858;10.374;2022-11-28T17:04:48;5.20;99.90
22680;DHT22;11507;44.858;10.374;2022-11-28T17:07:19;5.20;99.90
22680;DHT22;11507;44.858;10.374;2022-11-28T17:09:47;5.20;99.90
22680;DHT22;11507;44.858;10.374;2022-11-28T17:12:33;5.10;99.90
22680;DHT22;11507;44.858;10.374;2022-11-28T17:15:02;5.10;99.90
22680;DHT22;11507;44.858;10.374;2022-11-28T17:17:29;5.10;99.90
22680;DHT22;11507;44.858;10.374;2022-11-28T17:19:55;5.20;99.90
22680;DHT22;11507;44.858;10.374;2022-11-28T17:22:24;5.10;99.90
22680;DHT22;11507;44.858;10.374;2022-11-28T17:24:55;5.10;99.90
22680;DHT22;11507;44.858;10.374;2022-11-28T17:27:22;5.10;99.90
22680;DHT22;11507;44.858;10.374;2022-11-28T17:29:48;5.10;99.90
22680;DHT22;11507;44.858;10.374;2022-11-28T17:32:14;5.10;99.90
22680;DHT22;11507;44.858;10.374;2022-11-28T17:34:42;5.00;99.90
22680;DHT22;11507;44.858;10.374;2022-11-28T17:37:08;5.00;99.90
22680;DHT22;11507;44.858;10.374;2022-11-28T17:39:34;5.00;99.90
22680;DHT22;11507;44.858;10.374;2022-11-28T17:42:01;5.00;99.90
22680;DHT22;11507;44.858;10.374;2022-11-28T17:44:29;5.00;99.90
22680;DHT22;11507;44.858;10.374;2022-11-28T17:46:58;5.00;99.90
22680;DHT22;11507;44.858;10.374;2022-11-28T17:49:27;4.90;99.90
22680;DHT22;11507;44.858;10.374;2022-11-28T17:51:55;5.00;99.90
22680;DHT22;11507;44.858;10.374;2022-11-28T17:54:23;4.90;99.90
22680;DHT22;11507;44.858;10.374;2022-11-28T17:56:54;5.00;99.90
22680;DHT22;11507;44.858;10.374;2022-11-28T17:59:23;4.90;99.90
22680;DHT22;11507;44.858;10.374;2022-11-28T18:01:49;5.00;99.90
22680;DHT22;11507;44.858;10.374;2022-11-28T18:04:23;5.10;99.90
22680;DHT22;11507;44.858;10.374;2022-11-28T18:06:50;5.10;99.90
22680;DHT22;11507;44.858;10.374;2022-11-28T18:09:17;5.10;99.90
22680;DHT22;11507;44.858;10.374;2022-11-28T18:11:44;5.10;99.90
22680;DHT22;11507;44.858;10.374;2022-11-28T18:14:32;5.00;99.90
22680;DHT22;11507;44.858;10.374;2022-11-28T18:16:59;5.00;99.90
22680;DHT22;11507;44.858;10.374;2022-11-28T18:19:26;4.90;99.90
22680;DHT22;11507;44.858;10.374;2022-11-28T18:21:51;5.00;99.90
22680;DHT22;11507;44.858;10.374;2022-11-28T18:24:17;5.00;99.90
22680;DHT22;11507;44.858;10.374;2022-11-28T18:26:44;5.00;99.90
22680;DHT22;11507;44.858;10.374;2022-11-28T18:29:10;5.00;99.90
22680;DHT22;11507;44.858;10.374;2022-11-28T18:31:38;4.90;99.90
22680;DHT22;11507;44.858;10.374;2022-11-28T18:34:06;4.90;99.90
22680;DHT22;11507;44.858;10.374;2022-11-28T18:36:35;4.90;99.90
22680;DHT22;11507;44.858;10.374;2022-11-28T18:39:07;4.90;99.90
22680;DHT22;11507;44.858;10.374;2022-11-28T18:41:33;4.90;99.90
22680;DHT22;11507;44.858;10.374;2022-11-28T18:44:03;4.90;99.90
22680;DHT22;11507;44.858;10.374;2022-11-28T18:46:30;4.90;99.90
22680;DHT22;11507;44.858;10.374;2022-11-28T18:48:56;4.90;99.90
22680;DHT22;11507;44.858;10.374;2022-11-28T18:51:31;4.90;99.90